Time;durP1;ratioP1;P1;durP2;ratioP2;P2;SDS_P1;SDS_P2;PMS_P1;PMS_P2;Temp;Humidity;BMP_temperature;BMP_pressure;BME280_temperature;BME280_humidity;BME280_pressure;Samples;Min_cycle;Max_cycle;Signal;HPM_P1;HPM_P2
2023/07/18 00:01:58;;;;;;;1.50;1.00;;;17.00;98.20;;;;;;4934484;29;20485;-85
2023/07/18 00:04:27;;;;;;;1.50;1.00;;;17.00;98.20;;;;;;4937773;29;20520;-85
2023/07/18 00:06:54;;;;;;;1.50;1.00;;;17.00;98.20;;;;;;4940697;29;20542;-84
2023/07/18 00:09:21;;;;;;;1.50;1.00;;;17.00;98.20;;;;;;4937751;29;20456;-86
2023/07/18 00:11:48;;;;;;;1.47;1.00;;;17.00;98.20;;;;;;4937992;29;20536;-86
2023/07/18 00:14:15;;;;;;;1.47;0.90;;;17.00;98.20;;;;;;4929563;29;20494;-86
2023/07/18 00:16:44;;;;;;;1.50;1.00;;;16.90;98.20;;;;;;4934361;29;20472;-86
2023/07/18 00:19:12;;;;;;;1.47;1.00;;;16.90;98.20;;;;;;4937541;29;20463;-85
2023/07/18 00:21:39;;;;;;;1.50;1.00;;;16.90;98.20;;;;;;4932822;29;20456;-86
2023/07/18 00:24:06;;;;;;;1.47;1.00;;;16.90;98.20;;;;;;4935628;29;20485;-88
2023/07/18 00:26:34;;;;;;;1.47;0.90;;;16.90;98.20;;;;;;4935633;29;20704;-88
2023/07/18 00:29:01;;;;;;;1.50;1.00;;;16.90;98.20;;;;;;4936263;29;20473;-85
2023/07/18 00:31:28;;;;;;;1.50;0.93;;;16.80;98.20;;;;;;4933762;29;20528;-86
2023/07/18 00:33:56;;;;;;;1.40;0.90;;;16.80;98.20;;;;;;4930849;29;20487;-85
2023/07/18 00:36:22;;;;;;;1.50;0.97;;;16.70;98.20;;;;;;4935167;29;20460;-84
2023/07/18 00:38:50;;;;;;;1.50;1.00;;;16.70;98.20;;;;;;4938726;29;20461;-88
2023/07/18 00:41:23;;;;;;;1.50;0.90;;;16.60;98.20;;;;;;4937683;29;20460;-87
2023/07/18 00:43:49;;;;;;;1.50;1.00;;;16.60;98.20;;;;;;4932065;29;20492;-85
2023/07/18 00:46:17;;;;;;;1.50;0.90;;;16.60;98.20;;;;;;4932178;29;20452;-85
2023/07/18 00:48:44;;;;;;;1.43;0.90;;;16.60;98.20;;;;;;4935407;29;20461;-86
2023/07/18 00:51:13;;;;;;;1.47;0.90;;;16.50;98.20;;;;;;4939828;29;20554;-86
2023/07/18 00:53:40;;;;;;;1.47;1.00;;;16.50;98.20;;;;;;4936223;29;20556;-87
2023/07/18 00:56:06;;;;;;;1.50;1.00;;;16.40;98.20;;;;;;4939877;29;20461;-88
2023/07/18 00:58:33;;;;;;;1.50;0.90;;;16.30;98.20;;;;;;4935410;29;20797;-86
2023/07/18 01:01:01;;;;;;;1.50;1.00;;;16.30;98.20;;;;;;4934202;29;20472;-88
2023/07/18 01:03:29;;;;;;;1.50;0.93;;;16.30;98.20;;;;;;4931963;29;20487;-85
2023/07/18 01:05:56;;;;;;;1.50;1.00;;;16.30;98.20;;;;;;4934384;29;20532;-86
2023/07/18 01:08:24;;;;;;;1.50;1.00;;;16.20;98.20;;;;;;4936652;29;20472;-87
2023/07/18 01:10:51;;;;;;;1.50;1.00;;;16.20;98.20;;;;;;4930009;29;20461;-86
2023/07/18 01:13:18;;;;;;;1.47;0.97;;;16.20;98.20;;;;;;4932773;29;20482;-85
2023/07/18 01:15:45;;;;;;;1.50;1.00;;;16.20;98.20;;;;;;4936843;29;20475;-86
2023/07/18 01:18:13;;;;;;;1.50;1.00;;;16.20;98.20;;;;;;4936045;29;20459;-85
2023/07/18 01:20:40;;;;;;;1.50;0.90;;;16.20;98.20;;;;;;4934712;29;20551;-84
2023/07/18 01:23:08;;;;;;;1.50;1.00;;;16.20;98.20;;;;;;4931062;29;20517;-85
2023/07/18 01:25:36;;;;;;;1.50;1.10;;;16.20;98.20;;;;;;4933682;29;20535;-85
2023/07/18 01:28:03;;;;;;;1.50;1.00;;;16.10;98.20;;;;;;4934752;29;21189;-86
2023/07/18 01:30:31;;;;;;;1.47;0.90;;;16.10;98.20;;;;;;4935499;29;20475;-86
2023/07/18 01:32:58;;;;;;;1.50;1.00;;;16.10;98.20;;;;;;4927436;29;20533;-85
2023/07/18 01:35:26;;;;;;;1.50;0.90;;;16.10;98.20;;;;;;4942771;29;20482;-88
2023/07/18 01:37:53;;;;;;;1.50;1.00;;;16.10;98.20;;;;;;4942693;29;20464;-88
2023/07/18 01:40:23;;;;;;;1.47;1.00;;;16.10;98.20;;;;;;4939649;29;20614;-83
2023/07/18 01:42:51;;;;;;;1.50;0.90;;;16.00;98.20;;;;;;4933113;29;20495;-87
2023/07/18 01:45:19;;;;;;;1.50;0.90;;;16.10;98.20;;;;;;4935700;29;20543;-86
2023/07/18 01:47:46;;;;;;;1.50;1.00;;;16.10;98.20;;;;;;4933024;29;20464;-85
2023/07/18 01:50:13;;;;;;;1.50;1.00;;;16.10;98.20;;;;;;4935851;29;20849;-86
2023/07/18 01:52:40;;;;;;;1.50;1.00;;;16.10;98.20;;;;;;4937561;29;20528;-87
2023/07/18 01:55:08;;;;;;;1.50;0.90;;;16.10;98.20;;;;;;4934954;29;20470;-87
2023/07/18 01:57:45;;;;;;;1.50;1.00;;;16.10;98.20;;;;;;4933102;29;20475;-84
2023/07/18 02:00:18;;;;;;;1.50;1.00;;;16.00;98.20;;;;;;4935619;29;20555;-84
2023/07/18 02:02:47;;;;;;;1.50;0.97;;;16.00;98.20;;;;;;4929701;29;20488;-87
2023/07/18 02:05:15;;;;;;;1.50;1.00;;;16.00;98.20;;;;;;4935083;29;20467;-86
2023/07/18 02:07:42;;;;;;;1.50;1.00;;;16.00;98.20;;;;;;4933710;29;20842;-85
2023/07/18 02:10:09;;;;;;;1.50;1.10;;;16.00;98.20;;;;;;4938768;29;20474;-84
2023/07/18 02:12:36;;;;;;;1.50;0.90;;;16.00;98.20;;;;;;4939695;29;20459;-87
2023/07/18 02:15:05;;;;;;;1.47;0.97;;;16.00;98.20;;;;;;4937671;29;20469;-86
2023/07/18 02:17:32;;;;;;;2.57;1.57;;;16.00;98.20;;;;;;4937556;29;20770;-87
2023/07/18 02:19:59;;;;;;;1.47;0.90;;;16.00;98.20;;;;;;4941232;29;20459;-84
2023/07/18 02:22:26;;;;;;;1.50;1.00;;;16.00;98.20;;;;;;4935901;29;20456;-86
2023/07/18 02:24:54;;;;;;;1.47;1.00;;;16.00;98.20;;;;;;4935625;29;20523;-86
2023/07/18 02:27:21;;;;;;;1.50;1.00;;;16.00;98.20;;;;;;4937692;29;20460;-84
2023/07/18 02:29:49;;;;;;;1.50;1.00;;;16.00;98.20;;;;;;4936808;29;20468;-86
2023/07/18 02:32:17;;;;;;;2.27;1.30;;;16.00;98.20;;;;;;4937530;29;20468;-85
2023/07/18 02:34:45;;;;;;;1.50;1.00;;;16.00;98.20;;;;;;4934999;29;20484;-82
2023/07/18 02:37:12;;;;;;;1.47;1.00;;;16.00;98.20;;;;;;4932410;29;20855;-82
2023/07/18 02:39:42;;;;;;;1.50;1.00;;;16.00;98.20;;;;;;4937442;29;20466;-87
2023/07/18 02:42:09;;;;;;;1.47;1.00;;;15.90;98.20;;;;;;4937634;29;20551;-84
2023/07/18 02:44:36;;;;;;;1.50;1.00;;;15.90;98.20;;;;;;4936195;29;20509;-85
2023/07/18 02:47:03;;;;;;;1.50;1.00;;;15.90;98.20;;;;;;4935584;29;20476;-84
2023/07/18 02:49:32;;;;;;;1.50;1.00;;;15.90;98.20;;;;;;4938568;29;20463;-85
2023/07/18 02:51:59;;;;;;;1.47;1.00;;;15.90;98.20;;;;;;4937928;29;20829;-84
2023/07/18 02:54:26;;;;;;;1.47;1.00;;;15.90;98.20;;;;;;4937332;29;20504;-84
2023/07/18 02:56:53;;;;;;;1.50;1.00;;;15.90;98.20;;;;;;4934544;29;20464;-86
2023/07/18 02:59:21;;;;;;;1.50;0.90;;;15.90;98.20;;;;;;4938811;29;20463;-86
2023/07/18 03:01:49;;;;;;;1.50;1.00;;;15.80;98.20;;;;;;4935894;29;20523;-86
2023/07/18 03:04:16;;;;;;;1.50;1.00;;;15.80;98.20;;;;;;4936336;29;20487;-86
2023/07/18 03:06:47;;;;;;;1.50;1.20;;;15.80;98.20;;;;;;4933686;29;20567;-85
2023/07/18 03:09:16;;;;;;;1.50;1.00;;;15.80;98.20;;;;;;4938114;29;20460;-85
2023/07/18 03:11:43;;;;;;;1.50;1.00;;;15.80;98.20;;;;;;4937816;29;20460;-85
2023/07/18 03:14:11;;;;;;;1.50;0.90;;;15.80;98.20;;;;;;4932649;29;20488;-83
2023/07/18 03:16:38;;;;;;;1.50;1.00;;;15.80;98.20;;;;;;4935241;29;20464;-84
2023/07/18 03:19:05;;;;;;;1.50;1.00;;;15.70;98.20;;;;;;4936993;29;20525;-85
2023/07/18 03:21:32;;;;;;;1.50;1.00;;;15.70;98.20;;;;;;4934957;29;20466;-86
2023/07/18 03:24:00;;;;;;;1.50;0.90;;;15.60;98.20;;;;;;4934888;29;20485;-86
2023/07/18 03:26:27;;;;;;;1.50;1.00;;;15.60;98.20;;;;;;4935075;29;20456;-86
2023/07/18 03:28:55;;;;;;;1.50;1.00;;;15.60;98.20;;;;;;4935809;29;20468;-83
2023/07/18 03:31:21;;;;;;;1.50;1.00;;;15.60;98.20;;;;;;4934563;29;20835;-83
2023/07/18 03:33:48;;;;;;;1.50;1.00;;;15.60;98.20;;;;;;4931671;29;20864;-87
2023/07/18 03:36:15;;;;;;;1.50;1.00;;;15.60;98.20;;;;;;4935111;29;20474;-83
2023/07/18 03:38:42;;;;;;;1.50;0.90;;;15.50;98.20;;;;;;4942332;29;20473;-86
2023/07/18 03:41:10;;;;;;;1.50;1.00;;;15.50;98.20;;;;;;4934367;29;20475;-84
2023/07/18 03:43:37;;;;;;;1.50;1.00;;;15.50;98.20;;;;;;4935607;29;20966;-85
2023/07/18 03:46:04;;;;;;;1.50;1.20;;;15.40;98.20;;;;;;4938977;29;20461;-84
2023/07/18 03:48:31;;;;;;;1.50;1.00;;;15.30;98.20;;;;;;4932237;29;20472;-84
2023/07/18 03:50:57;;;;;;;1.50;1.10;;;15.30;98.20;;;;;;4933386;29;20518;-85
2023/07/18 03:53:24;;;;;;;1.50;1.00;;;15.30;98.20;;;;;;4932849;29;20559;-85
2023/07/18 03:55:51;;;;;;;1.50;1.00;;;15.30;98.20;;;;;;4936262;29;20467;-85
2023/07/18 03:58:20;;;;;;;1.50;1.03;;;15.30;98.20;;;;;;4935491;29;20460;-84
2023/07/18 04:00:47;;;;;;;1.50;1.00;;;15.30;98.20;;;;;;4937983;29;20468;-84
2023/07/18 04:03:14;;;;;;;1.50;1.00;;;15.30;98.20;;;;;;4938802;29;20488;-85
2023/07/18 04:05:40;;;;;;;1.50;1.00;;;15.40;98.20;;;;;;4938389;29;20477;-84
2023/07/18 04:08:07;;;;;;;1.50;1.00;;;15.30;98.20;;;;;;4940995;29;20456;-87
2023/07/18 04:10:34;;;;;;;1.50;1.00;;;15.30;98.20;;;;;;4934656;29;20456;-83
2023/07/18 04:13:01;;;;;;;1.50;1.00;;;15.30;98.20;;;;;;4931963;29;20547;-83
2023/07/18 04:15:29;;;;;;;1.50;1.00;;;15.30;98.20;;;;;;4938332;29;20470;-84
2023/07/18 04:17:55;;;;;;;1.50;1.00;;;15.30;98.20;;;;;;4933358;29;20464;-84
2023/07/18 04:20:22;;;;;;;1.50;1.00;;;15.30;98.20;;;;;;4935418;29;20475;-83
2023/07/18 04:22:49;;;;;;;1.50;1.00;;;15.30;98.20;;;;;;4930245;29;20460;-82
2023/07/18 04:25:16;;;;;;;1.47;1.00;;;15.20;98.20;;;;;;4929071;29;20492;-80
2023/07/18 04:27:44;;;;;;;1.50;1.00;;;15.30;98.20;;;;;;4928840;29;20460;-83
2023/07/18 04:30:11;;;;;;;1.50;1.00;;;15.20;98.20;;;;;;4927337;29;21225;-82
2023/07/18 04:32:43;;;;;;;1.50;1.00;;;15.30;98.20;;;;;;4925704;29;20983;-82
2023/07/18 04:35:10;;;;;;;1.50;1.00;;;15.30;98.20;;;;;;4937054;29;21065;-81
2023/07/18 04:37:37;;;;;;;1.47;1.00;;;15.30;98.20;;;;;;4933071;29;20464;-81
2023/07/18 04:40:05;;;;;;;1.50;1.00;;;15.30;98.20;;;;;;4930069;29;20468;-81
2023/07/18 04:42:33;;;;;;;1.50;1.00;;;15.40;98.20;;;;;;4932006;29;20914;-82
2023/07/18 04:45:00;;;;;;;1.50;1.00;;;15.40;98.20;;;;;;4933073;29;20617;-81
2023/07/18 04:47:27;;;;;;;1.50;1.10;;;15.50;98.20;;;;;;4932669;29;20970;-80
2023/07/18 04:49:56;;;;;;;1.50;1.00;;;15.50;98.20;;;;;;4934363;29;20472;-81
2023/07/18 04:52:22;;;;;;;1.50;1.00;;;15.60;98.20;;;;;;4934014;29;20491;-81
2023/07/18 04:54:49;;;;;;;1.50;1.00;;;15.60;98.20;;;;;;4932617;29;21019;-80
2023/07/18 04:57:17;;;;;;;1.50;1.00;;;15.70;98.20;;;;;;4936164;29;20463;-79
2023/07/18 04:59:44;;;;;;;1.50;1.17;;;15.80;98.20;;;;;;4938997;29;20468;-81
2023/07/18 05:02:11;;;;;;;1.50;1.00;;;15.90;98.20;;;;;;4938131;29;20460;-81
2023/07/18 05:04:38;;;;;;;1.47;1.00;;;16.00;98.20;;;;;;4936400;29;20487;-82
2023/07/18 05:07:06;;;;;;;1.47;0.90;;;16.10;98.20;;;;;;4932632;29;20500;-81
2023/07/18 05:09:33;;;;;;;1.50;1.00;;;16.20;98.20;;;;;;4934210;29;20502;-82
2023/07/18 05:12:01;;;;;;;1.50;1.10;;;16.30;98.20;;;;;;4933763;29;20540;-81
2023/07/18 05:14:28;;;;;;;1.50;1.00;;;16.50;98.20;;;;;;4933234;29;20494;-82
2023/07/18 05:16:55;;;;;;;1.50;1.00;;;16.70;98.20;;;;;;4930417;29;20464;-82
2023/07/18 05:19:22;;;;;;;1.77;1.67;;;16.90;98.20;;;;;;4935357;29;21019;-82
2023/07/18 05:21:50;;;;;;;1.50;1.00;;;17.00;98.20;;;;;;4934793;29;20463;-81
2023/07/18 05:24:18;;;;;;;1.50;0.90;;;17.20;98.20;;;;;;4934594;29;20940;-82
2023/07/18 05:26:45;;;;;;;1.50;1.00;;;17.30;98.20;;;;;;4933402;29;20474;-82
2023/07/18 05:29:12;;;;;;;1.50;0.90;;;17.40;98.20;;;;;;4929549;29;20467;-83
2023/07/18 05:31:39;;;;;;;1.50;0.93;;;17.50;98.20;;;;;;4932666;29;20559;-82
2023/07/18 05:34:06;;;;;;;1.50;1.00;;;17.70;98.20;;;;;;4934432;29;20479;-80
2023/07/18 05:36:33;;;;;;;1.50;1.00;;;17.90;98.20;;;;;;4932201;29;20467;-85
2023/07/18 05:39:00;;;;;;;1.50;1.00;;;18.10;98.20;;;;;;4934818;29;20472;-82
2023/07/18 05:41:28;;;;;;;1.50;0.97;;;18.20;98.20;;;;;;4929264;29;20542;-80
2023/07/18 05:43:55;;;;;;;1.50;0.90;;;18.40;98.20;;;;;;4933174;29;20560;-83
2023/07/18 05:46:22;;;;;;;1.47;0.90;;;18.50;98.20;;;;;;4932029;29;20466;-82
2023/07/18 05:48:48;;;;;;;1.50;1.00;;;18.60;98.20;;;;;;4936403;29;20456;-83
2023/07/18 05:51:15;;;;;;;1.43;0.90;;;18.70;98.20;;;;;;4928491;29;20467;-83
2023/07/18 05:53:42;;;;;;;1.50;0.90;;;18.80;98.20;;;;;;4929409;29;20486;-81
2023/07/18 05:56:09;;;;;;;1.50;1.00;;;18.90;98.20;;;;;;4931823;29;20474;-83
2023/07/18 05:58:37;;;;;;;1.50;1.00;;;19.00;98.20;;;;;;4930744;29;20479;-84
2023/07/18 06:01:14;;;;;;;1.50;0.90;;;19.10;98.20;;;;;;4927599;29;20844;-83
2023/07/18 06:03:41;;;;;;;1.50;0.90;;;19.20;97.90;;;;;;4934995;29;20503;-82
2023/07/18 06:06:08;;;;;;;1.50;0.90;;;19.30;97.80;;;;;;4939749;29;20869;-83
2023/07/18 06:08:34;;;;;;;1.47;1.00;;;19.40;96.70;;;;;;4939127;29;20490;-83
2023/07/18 06:11:01;;;;;;;1.50;0.90;;;19.50;96.70;;;;;;4934241;29;20492;-82
2023/07/18 06:13:28;;;;;;;1.43;0.90;;;19.60;96.40;;;;;;4935511;29;20475;-82
2023/07/18 06:15:56;;;;;;;1.50;0.90;;;19.80;95.70;;;;;;4934302;29;20472;-83
2023/07/18 06:18:23;;;;;;;1.50;1.00;;;19.90;94.80;;;;;;4938937;29;20468;-81
2023/07/18 06:20:50;;;;;;;1.50;1.00;;;20.10;95.00;;;;;;4928713;29;20944;-82
2023/07/18 06:23:17;;;;;;;1.50;0.90;;;20.20;94.10;;;;;;4941514;29;20582;-84
2023/07/18 06:25:43;;;;;;;1.50;0.90;;;20.30;94.10;;;;;;4927299;29;20488;-83
2023/07/18 06:28:10;;;;;;;1.50;0.90;;;20.40;93.40;;;;;;4922414;29;20475;-80
2023/07/18 06:30:37;;;;;;;1.50;0.90;;;20.50;93.30;;;;;;4922852;29;20478;-81
2023/07/18 06:33:05;;;;;;;1.50;0.90;;;20.70;93.50;;;;;;4924534;29;20488;-83
2023/07/18 06:35:33;;;;;;;1.50;0.90;;;20.90;91.80;;;;;;4929710;29;20523;-83
2023/07/18 06:37:59;;;;;;;1.50;0.90;;;21.10;90.90;;;;;;4925172;29;20532;-81
2023/07/18 06:40:27;;;;;;;1.50;0.90;;;21.20;90.80;;;;;;4925989;29;20474;-82
2023/07/18 06:42:54;;;;;;;1.50;1.00;;;21.50;90.50;;;;;;4926117;29;20583;-82
2023/07/18 06:45:21;;;;;;;1.50;0.90;;;21.60;88.60;;;;;;4931299;29;20483;-83
2023/07/18 06:47:48;;;;;;;1.50;0.90;;;21.70;87.40;;;;;;4927846;29;20467;-84
2023/07/18 06:50:16;;;;;;;1.50;1.00;;;21.80;86.30;;;;;;4929999;29;20555;-83
2023/07/18 06:52:42;;;;;;;1.50;0.90;;;21.90;86.50;;;;;;4929929;29;20468;-84
2023/07/18 06:55:10;;;;;;;1.50;0.90;;;22.00;87.00;;;;;;4925753;28;20483;-82
2023/07/18 06:57:37;;;;;;;1.50;0.90;;;22.20;85.90;;;;;;4936162;29;20527;-81
2023/07/18 07:00:06;;;;;;;1.50;0.90;;;22.40;84.00;;;;;;4939831;29;20494;-81
2023/07/18 07:02:33;;;;;;;1.50;0.90;;;22.50;83.40;;;;;;4937194;29;20499;-83
2023/07/18 07:05:04;;;;;;;1.47;0.90;;;22.60;83.10;;;;;;4936702;29;20492;-85
2023/07/18 07:07:32;;;;;;;1.50;0.90;;;22.70;81.70;;;;;;4932776;29;20503;-81
2023/07/18 07:09:59;;;;;;;1.47;0.90;;;22.80;82.20;;;;;;4933897;29;20479;-81
2023/07/18 07:12:26;;;;;;;1.50;0.90;;;22.90;82.60;;;;;;4932587;29;20470;-81
2023/07/18 07:14:52;;;;;;;1.50;0.90;;;23.20;82.30;;;;;;4934037;29;20471;-82
2023/07/18 07:17:19;;;;;;;1.50;0.90;;;23.30;80.30;;;;;;4930206;29;20460;-82
2023/07/18 07:19:46;;;;;;;1.50;0.90;;;23.60;80.00;;;;;;4932290;29;20468;-82
2023/07/18 07:22:14;;;;;;;1.50;0.90;;;23.70;79.00;;;;;;4932980;29;20551;-81
2023/07/18 07:24:42;;;;;;;1.47;0.90;;;23.90;80.10;;;;;;4935914;29;20494;-82
2023/07/18 07:27:09;;;;;;;1.50;0.90;;;24.20;78.30;;;;;;4935538;29;20467;-82
2023/07/18 07:29:40;;;;;;;1.50;0.90;;;24.40;77.20;;;;;;4933468;29;20633;-82
2023/07/18 07:32:07;;;;;;;1.50;0.90;;;24.50;76.50;;;;;;4936318;29;20475;-83
2023/07/18 07:34:34;;;;;;;1.50;1.00;;;24.70;75.20;;;;;;4933775;29;21145;-80
2023/07/18 07:37:01;;;;;;;1.43;0.80;;;24.80;75.10;;;;;;4930993;29;20831;-82
2023/07/18 07:39:28;;;;;;;1.47;0.80;;;24.90;75.80;;;;;;4930963;29;20944;-82
2023/07/18 07:41:56;;;;;;;1.47;0.80;;;25.00;76.00;;;;;;4931076;29;20467;-82
2023/07/18 07:44:22;;;;;;;1.47;0.80;;;25.20;75.60;;;;;;4930602;29;21032;-81
2023/07/18 07:46:49;;;;;;;1.50;0.80;;;25.40;74.10;;;;;;4929680;29;20570;-82
2023/07/18 07:49:16;;;;;;;1.50;0.80;;;25.60;74.10;;;;;;4931256;29;20839;-84
2023/07/18 07:51:47;;;;;;;1.50;0.80;;;25.80;73.60;;;;;;4936290;29;20485;-84
2023/07/18 07:54:25;;;;;;;1.50;0.80;;;26.00;72.90;;;;;;4938474;29;20796;-83
2023/07/18 07:57:01;;;;;;;1.43;0.83;;;26.30;72.50;;;;;;4932676;29;20460;-85
2023/07/18 07:59:33;;;;;;;1.50;0.80;;;26.40;71.90;;;;;;4933436;29;20546;-86
2023/07/18 08:02:03;;;;;;;1.47;0.90;;;26.60;70.80;;;;;;4934837;29;20874;-84
2023/07/18 08:04:30;;;;;;;1.47;0.80;;;26.70;71.00;;;;;;4935673;29;20495;-83
2023/07/18 08:07:04;;;;;;;1.43;0.80;;;26.70;70.90;;;;;;4936160;29;20460;-84
2023/07/18 08:09:32;;;;;;;1.50;0.80;;;26.70;70.80;;;;;;4933710;29;20802;-84
2023/07/18 08:12:00;;;;;;;1.50;0.83;;;26.60;70.60;;;;;;4929219;29;20476;-87
2023/07/18 08:14:37;;;;;;;1.50;0.80;;;26.50;70.90;;;;;;4933145;29;21111;-88
2023/07/18 08:17:20;;;;;;;;;;;;;;;;;;;;;
2023/07/18 08:19:47;;;;;;;1.43;0.80;;;26.50;71.40;;;;;;4938630;29;20834;-86
2023/07/18 08:22:22;;;;;;;1.40;0.80;;;26.50;70.50;;;;;;4937757;29;20495;-84
2023/07/18 08:24:49;;;;;;;1.50;0.80;;;26.60;71.50;;;;;;4933659;29;20568;-87
2023/07/18 08:27:17;;;;;;;1.47;0.80;;;26.70;70.70;;;;;;4933343;29;20455;-84
2023/07/18 08:29:44;;;;;;;1.50;0.80;;;26.70;71.40;;;;;;4935709;29;20451;-85
2023/07/18 08:32:30;;;;;;;1.47;0.80;;;26.70;70.60;;;;;;4937017;29;20464;-86
2023/07/18 08:35:27;;;;;;;1.47;0.80;;;26.70;70.40;;;;;;4936237;29;20534;-86
2023/07/18 08:37:54;;;;;;;1.43;0.80;;;26.70;70.30;;;;;;4934535;29;20478;-82
2023/07/18 08:40:21;;;;;;;1.50;0.80;;;26.60;69.10;;;;;;4931364;29;20471;-85
2023/07/18 08:42:51;;;;;;;1.40;0.80;;;26.70;70.90;;;;;;4928567;29;20490;-82
2023/07/18 08:45:21;;;;;;;1.50;0.90;;;26.70;71.00;;;;;;4933441;29;20499;-80
2023/07/18 08:47:55;;;;;;;1.47;0.80;;;26.80;69.60;;;;;;4932075;29;20811;-79
2023/07/18 08:50:25;;;;;;;1.43;0.80;;;26.90;69.20;;;;;;4932259;29;20464;-80
2023/07/18 08:52:51;;;;;;;1.47;0.80;;;26.90;68.90;;;;;;4931864;29;20470;-85
2023/07/18 08:55:21;;;;;;;1.47;0.80;;;26.80;68.70;;;;;;4932687;29;20471;-81
2023/07/18 08:57:56;;;;;;;1.47;0.80;;;26.70;70.00;;;;;;4934694;29;20474;-85
2023/07/18 09:00:22;;;;;;;1.50;0.80;;;26.70;69.00;;;;;;4929767;29;20824;-85
2023/07/18 09:02:49;;;;;;;1.50;0.80;;;26.60;69.40;;;;;;4931587;29;20477;-89
2023/07/18 09:05:36;;;;;;;1.40;0.80;;;26.60;69.60;;;;;;4933312;29;21239;-85
2023/07/18 09:11:02;;;;;;;1.43;0.80;;;26.80;69.20;;;;;;4930075;29;20456;-83
2023/07/18 09:13:37;;;;;;;1.50;0.80;;;26.80;70.10;;;;;;4930412;29;20518;-81
2023/07/18 09:16:12;;;;;;;1.50;0.80;;;26.80;70.30;;;;;;4927314;29;20463;-81
2023/07/18 09:18:39;;;;;;;1.43;0.80;;;27.00;69.60;;;;;;4931881;29;20463;-87
2023/07/18 09:21:15;;;;;;;1.47;0.90;;;27.20;69.40;;;;;;4937016;29;20494;-83
2023/07/18 09:23:46;;;;;;;1.43;0.80;;;27.30;69.10;;;;;;4937783;29;20489;-85
2023/07/18 09:26:19;;;;;;;1.40;0.80;;;27.30;68.90;;;;;;4933234;29;20486;-85
2023/07/18 09:28:56;;;;;;;1.40;0.80;;;27.30;68.20;;;;;;4930793;29;20567;-87
2023/07/18 09:31:27;;;;;;;1.50;0.80;;;27.50;68.00;;;;;;4928708;29;20459;-85
2023/07/18 09:33:57;;;;;;;1.60;1.10;;;27.60;67.00;;;;;;4927352;29;21002;-84
2023/07/18 09:36:25;;;;;;;1.40;0.80;;;27.70;68.00;;;;;;4933359;29;20456;-86
2023/07/18 09:38:59;;;;;;;1.43;0.80;;;27.70;68.10;;;;;;4929378;29;20939;-84
2023/07/18 09:41:27;;;;;;;1.43;0.80;;;27.70;67.50;;;;;;4927130;29;20906;-84
2023/07/18 09:43:56;;;;;;;1.40;0.80;;;27.60;67.50;;;;;;4928813;29;20514;-83
2023/07/18 09:49:14;;;;;;;1.50;0.80;;;27.40;67.50;;;;;;4929399;29;20471;-84
2023/07/18 09:51:47;;;;;;;1.40;0.80;;;27.40;67.60;;;;;;4930431;29;20769;-85
2023/07/18 09:54:15;;;;;;;1.40;0.80;;;27.60;69.30;;;;;;4926030;29;20488;-80
2023/07/18 09:56:46;;;;;;;1.40;0.87;;;27.70;68.10;;;;;;4925010;29;20474;-84
2023/07/18 09:59:32;;;;;;;1.47;0.80;;;27.80;68.50;;;;;;4929776;29;20456;-88
2023/07/18 10:02:04;;;;;;;1.40;0.90;;;27.80;67.60;;;;;;4934381;29;20525;-84
2023/07/18 10:04:32;;;;;;;1.43;0.80;;;27.80;67.60;;;;;;4931505;29;20495;-84
2023/07/18 10:06:59;;;;;;;1.40;0.90;;;27.80;67.70;;;;;;4932662;29;20483;-83
2023/07/18 10:09:27;;;;;;;1.43;0.80;;;27.70;67.60;;;;;;4931070;29;20498;-82
2023/07/18 10:12:12;;;;;;;1.40;0.80;;;27.60;67.30;;;;;;4930687;29;20473;-85
2023/07/18 10:14:56;;;;;;;1.43;0.80;;;27.60;67.20;;;;;;4931675;29;20487;-86
2023/07/18 10:17:40;;;;;;;1.47;0.80;;;27.50;67.80;;;;;;4928735;29;20807;-83
2023/07/18 10:20:13;;;;;;;1.47;0.80;;;27.40;69.10;;;;;;4931215;29;20546;-83
2023/07/18 10:22:48;;;;;;;1.50;0.80;;;27.30;67.80;;;;;;4931361;29;20467;-83
2023/07/18 10:25:17;;;;;;;1.43;0.80;;;27.30;69.60;;;;;;4921379;28;20494;-83
2023/07/18 10:27:46;;;;;;;1.40;0.80;;;27.20;67.90;;;;;;4931754;28;20569;-83
2023/07/18 10:30:17;;;;;;;1.40;0.90;;;27.20;68.20;;;;;;4936241;29;20562;-84
2023/07/18 10:32:51;;;;;;;1.47;0.80;;;27.20;67.90;;;;;;4934939;28;20497;-82
2023/07/18 10:35:19;;;;;;;1.50;0.90;;;27.20;68.10;;;;;;4930129;29;20985;-81
2023/07/18 10:37:46;;;;;;;1.40;0.80;;;27.30;68.40;;;;;;4935883;28;20489;-83
2023/07/18 10:40:33;;;;;;;1.40;0.80;;;27.30;68.70;;;;;;4937144;29;20863;-85
2023/07/18 10:43:00;;;;;;;1.47;0.80;;;27.30;68.60;;;;;;4926184;28;20967;-84
2023/07/18 10:45:28;;;;;;;1.43;0.90;;;27.30;68.80;;;;;;4935454;29;20487;-83
2023/07/18 10:47:55;;;;;;;1.43;0.80;;;27.30;68.00;;;;;;4932777;28;20483;-82
2023/07/18 10:50:22;;;;;;;1.47;0.80;;;27.20;68.40;;;;;;4937674;29;20477;-82
2023/07/18 10:52:49;;;;;;;1.43;0.90;;;27.10;69.60;;;;;;4930613;28;20495;-82
2023/07/18 10:55:16;;;;;;;1.40;0.80;;;27.10;69.10;;;;;;4934987;29;20472;-84
2023/07/18 10:57:43;;;;;;;1.43;0.90;;;27.10;68.50;;;;;;4938268;28;20477;-83
2023/07/18 11:00:11;;;;;;;1.43;0.80;;;27.10;69.30;;;;;;4935256;29;20468;-82
2023/07/18 11:02:41;;;;;;;1.47;0.80;;;27.20;67.80;;;;;;4935185;28;20612;-81
2023/07/18 11:05:10;;;;;;;1.50;1.10;;;27.20;68.50;;;;;;4935477;28;20500;-83
2023/07/18 11:07:40;;;;;;;1.43;0.90;;;27.30;68.80;;;;;;4935736;28;20894;-82
2023/07/18 11:10:08;;;;;;;1.40;0.80;;;27.20;68.20;;;;;;4933825;28;20493;-83
2023/07/18 11:12:35;;;;;;;1.40;0.80;;;27.20;67.80;;;;;;4934055;28;20487;-85
2023/07/18 11:15:05;;;;;;;1.40;0.80;;;27.20;68.40;;;;;;4934218;28;20483;-83
2023/07/18 11:17:32;;;;;;;1.40;0.90;;;27.30;68.00;;;;;;4929939;28;20490;-82
2023/07/18 11:20:02;;;;;;;1.40;0.90;;;27.40;67.90;;;;;;4933679;28;20468;-82
2023/07/18 11:25:16;;;;;;;1.43;0.80;;;27.50;67.90;;;;;;4929667;29;20459;-84
2023/07/18 11:27:43;;;;;;;1.40;0.90;;;27.50;67.60;;;;;;4933510;28;20501;-83
2023/07/18 11:30:10;;;;;;;2.23;1.50;;;27.60;68.60;;;;;;4936781;28;20475;-81
2023/07/18 11:32:38;;;;;;;1.43;0.80;;;27.60;68.40;;;;;;4940099;28;21048;-84
2023/07/18 11:35:09;;;;;;;1.43;0.80;;;27.80;67.50;;;;;;4935813;28;20475;-82
2023/07/18 11:37:38;;;;;;;1.47;0.80;;;28.20;67.40;;;;;;4931369;28;20485;-85
2023/07/18 11:40:06;;;;;;;1.43;0.80;;;28.50;66.30;;;;;;4934804;29;20463;-83
2023/07/18 11:42:46;;;;;;;1.47;0.90;;;28.80;67.00;;;;;;4936009;28;21000;-83
2023/07/18 11:45:15;;;;;;;1.40;0.80;;;28.90;65.70;;;;;;4933672;29;20474;-81
2023/07/18 11:47:47;;;;;;;1.43;0.80;;;28.90;65.70;;;;;;4913769;28;20476;-82
2023/07/18 11:50:16;;;;;;;1.47;0.80;;;29.10;65.50;;;;;;4929050;29;20475;-83
2023/07/18 11:52:45;;;;;;;1.50;1.00;;;29.20;64.40;;;;;;4928403;28;20538;-83
2023/07/18 11:55:13;;;;;;;1.43;0.80;;;29.30;65.50;;;;;;4930624;29;20471;-81
2023/07/18 11:57:40;;;;;;;1.50;0.80;;;29.60;64.60;;;;;;4929917;28;20493;-80
2023/07/18 12:00:09;;;;;;;1.47;0.80;;;29.90;64.10;;;;;;4926672;29;20478;-84
2023/07/18 12:02:36;;;;;;;1.47;0.80;;;30.10;62.60;;;;;;4928798;28;21084;-82
2023/07/18 12:05:03;;;;;;;1.47;0.90;;;30.10;64.10;;;;;;4926445;28;20872;-83
2023/07/18 12:07:31;;;;;;;1.47;0.80;;;30.20;64.10;;;;;;4932161;28;20486;-82
2023/07/18 12:09:58;;;;;;;1.47;0.80;;;30.50;63.00;;;;;;4933617;29;20523;-81
2023/07/18 12:12:25;;;;;;;1.50;0.80;;;30.60;62.40;;;;;;4929326;28;20534;-80
2023/07/18 12:14:52;;;;;;;1.47;0.80;;;30.60;61.20;;;;;;4932267;28;20483;-81
2023/07/18 12:17:19;;;;;;;1.43;0.80;;;30.80;62.10;;;;;;4926970;28;20490;-82
2023/07/18 12:19:46;;;;;;;1.43;0.80;;;31.10;63.00;;;;;;4930028;28;20467;-81
2023/07/18 12:22:13;;;;;;;1.47;0.80;;;31.20;61.00;;;;;;4932464;28;20485;-81
2023/07/18 12:24:41;;;;;;;1.40;0.80;;;31.30;61.40;;;;;;4932552;28;20529;-81
2023/07/18 12:27:08;;;;;;;1.50;0.80;;;31.30;60.60;;;;;;4925664;28;20494;-82
2023/07/18 12:29:36;;;;;;;1.43;0.87;;;31.00;62.00;;;;;;4934364;28;20239;-83
2023/07/18 12:32:03;;;;;;;1.40;0.80;;;31.10;61.30;;;;;;4928669;28;20526;-82
2023/07/18 12:34:30;;;;;;;1.43;0.80;;;31.30;60.50;;;;;;4932787;28;20219;-85
2023/07/18 12:36:57;;;;;;;1.47;0.80;;;31.40;60.30;;;;;;4925804;28;20497;-82
2023/07/18 12:39:24;;;;;;;1.47;0.80;;;31.60;59.20;;;;;;4933686;28;20551;-81
2023/07/18 12:41:52;;;;;;;1.47;0.90;;;31.80;60.80;;;;;;4921525;28;20510;-81
2023/07/18 12:44:20;;;;;;;1.47;0.80;;;31.90;60.30;;;;;;4936074;28;20237;-81
2023/07/18 12:46:47;;;;;;;1.47;0.80;;;32.10;60.50;;;;;;4925700;28;20237;-82
2023/07/18 12:49:14;;;;;;;1.43;0.80;;;32.10;58.40;;;;;;4931446;28;20286;-82
2023/07/18 12:51:42;;;;;;;1.43;0.80;;;32.10;59.70;;;;;;4922023;28;20296;-81
2023/07/18 12:54:09;;;;;;;1.47;0.80;;;32.10;60.60;;;;;;4939793;28;20648;-82
2023/07/18 12:56:37;;;;;;;1.43;0.80;;;32.30;60.00;;;;;;4922686;28;20223;-83
2023/07/18 12:59:07;;;;;;;1.40;0.80;;;32.50;59.90;;;;;;4934558;28;20250;-79
2023/07/18 13:01:34;;;;;;;1.40;0.80;;;32.60;59.80;;;;;;4921865;28;20267;-80
2023/07/18 13:04:00;;;;;;;1.43;0.80;;;32.50;59.30;;;;;;4937666;28;20749;-81